createdAt,value
2018-10-01T00:00:34.398Z,71.10
2018-10-01T00:03:03.108Z,71.54
2018-10-01T00:05:31.797Z,71.01
2018-10-01T00:08:00.791Z,71.34
2018-10-01T00:10:29.477Z,71.69
2018-10-01T00:12:58.207Z,71.66
2018-10-01T00:15:26.912Z,72.09
2018-10-01T00:17:55.788Z,71.95
2018-10-01T00:20:29.567Z,72.26
2018-10-01T00:22:58.275Z,71.72
2018-10-01T00:25:26.977Z,71.88
2018-10-01T00:27:55.668Z,71.75
2018-10-01T00:30:24.390Z,71.97
2018-10-01T00:32:53.092Z,71.73
2018-10-01T00:35:21.821Z,71.80
2018-10-01T00:37:50.513Z,71.51
2018-10-01T00:40:19.228Z,71.08
2018-10-01T00:42:47.908Z,71.48
2018-10-01T00:45:16.623Z,71.44
2018-10-01T00:47:45.336Z,71.61
2018-10-01T00:50:14.045Z,71.37
2018-10-01T00:52:42.730Z,71.52
2018-10-01T00:55:11.431Z,71.64
2018-10-01T00:57:40.088Z,71.93
2018-10-01T01:00:08.827Z,72.49
2018-10-01T01:02:37.508Z,72.40
2018-10-01T01:05:06.286Z,72.12
2018-10-01T01:07:35.032Z,72.02
2018-10-01T01:10:03.837Z,72.09
2018-10-01T01:12:32.508Z,71.67
2018-10-01T01:15:01.250Z,72.23
2018-10-01T01:17:29.939Z,72.02
2018-10-01T01:19:58.603Z,72.57
2018-10-01T01:22:27.315Z,72.34
2018-10-01T01:24:56.144Z,72.13
2018-10-01T01:27:24.844Z,72.71
2018-10-01T01:29:53.609Z,72.73
2018-10-01T01:32:22.320Z,73.08
2018-10-01T01:34:51.092Z,72.88
2018-10-01T01:37:19.765Z,73.25
2018-10-01T01:39:48.583Z,73.00
2018-10-01T01:42:17.265Z,73.29
2018-10-01T01:44:45.904Z,73.61
2018-10-01T01:47:14.611Z,73.63
2018-10-01T01:49:43.296Z,72.84
2018-10-01T01:52:11.971Z,73.10
2018-10-01T01:54:40.670Z,72.96
2018-10-01T01:57:09.355Z,72.52
2018-10-01T01:59:38.003Z,72.76
2018-10-01T02:02:06.728Z,72.77
2018-10-01T02:04:35.448Z,72.15
2018-10-01T02:07:04.163Z,72.18
2018-10-01T02:09:32.916Z,72.73
2018-10-01T02:12:01.583Z,73.23
2018-10-01T02:14:30.308Z,73.08
2018-10-01T02:16:59.041Z,72.46
2018-10-01T02:19:27.713Z,72.52
2018-10-01T02:21:56.431Z,72.85
2018-10-01T02:24:25.084Z,73.42
2018-10-01T02:26:53.768Z,73.59
2018-10-01T02:29:22.407Z,73.50
2018-10-01T02:31:51.140Z,73.58
2018-10-01T02:34:19.833Z,74.27
2018-10-01T02:36:48.520Z,74.33
2018-10-01T02:39:17.205Z,74.81
2018-10-01T02:41:45.867Z,74.89
2018-10-01T02:44:14.528Z,74.75
2018-10-01T02:46:43.217Z,74.42
2018-10-01T02:49:11.913Z,74.54
2018-10-01T02:51:45.614Z,74.88
2018-10-01T02:54:19.317Z,75.17
2018-10-01T02:56:47.999Z,75.39
2018-10-01T02:59:16.776Z,75.27
2018-10-01T03:01:45.516Z,75.75
2018-10-01T03:04:14.184Z,76.03
2018-10-01T03:06:42.979Z,75.91
2018-10-01T03:09:13.920Z,76.17
2018-10-01T03:11:43.007Z,76.26
2018-10-01T03:14:12.477Z,75.97
2018-10-01T03:16:41.171Z,76.12
2018-10-01T03:19:09.911Z,76.72
2018-10-01T03:21:39.173Z,76.48
2018-10-01T03:24:08.351Z,76.37
2018-10-01T03:26:37.065Z,76.54
2018-10-01T03:29:05.804Z,76.37
2018-10-01T03:31:34.506Z,77.11
2018-10-01T03:34:03.139Z,77.42
2018-10-01T03:36:31.804Z,77.64
2018-10-01T03:39:00.544Z,77.80
2018-10-01T03:41:29.277Z,78.13
2018-10-01T03:43:57.976Z,78.41
2018-10-01T03:46:26.667Z,78.93
2018-10-01T03:48:55.383Z,79.20
2018-10-01T03:51:24.079Z,79.84
2018-10-01T03:53:52.825Z,79.99
2018-10-01T03:56:21.498Z,79.96
2018-10-01T03:58:50.190Z,80.11
2018-10-01T04:01:18.875Z,79.90
2018-10-01T04:03:47.564Z,80.33
2018-10-01T04:06:16.254Z,80.46
2018-10-01T04:08:44.952Z,80.43
2018-10-01T04:11:13.661Z,80.50
2018-10-01T04:13:42.352Z,80.79
2018-10-01T04:16:11.069Z,80.81
2018-10-01T04:18:39.778Z,81.26
2018-10-01T04:21:08.451Z,81.32
2018-10-01T04:23:37.104Z,81.20
2018-10-01T04:26:05.841Z,81.45
2018-10-01T04:28:34.479Z,81.11
2018-10-01T04:31:03.199Z,80.86
2018-10-01T04:33:31.903Z,81.00
2018-10-01T04:36:00.569Z,80.82
2018-10-01T04:38:29.239Z,80.54
2018-10-01T04:40:57.923Z,80.73
2018-10-01T04:43:26.580Z,80.56
2018-10-01T04:45:55.269Z,79.95
2018-10-01T04:48:24.067Z,80.01
2018-10-01T04:50:52.808Z,79.46
2018-10-01T04:53:21.532Z,79.19
2018-10-01T04:55:50.247Z,79.25
2018-10-01T04:58:18.971Z,79.03
2018-10-01T05:00:47.584Z,78.90
2018-10-01T05:03:16.340Z,79.28
2018-10-01T05:05:45.065Z,79.65
2018-10-01T05:08:13.779Z,79.78
2018-10-01T05:10:42.471Z,79.72
2018-10-01T05:13:11.148Z,80.01
2018-10-01T05:15:39.884Z,80.49
2018-10-01T05:18:08.606Z,80.45
2018-10-01T05:20:37.326Z,80.78
2018-10-01T05:23:06.120Z,81.12
2018-10-01T05:25:34.898Z,81.29
2018-10-01T05:28:03.652Z,81.89
2018-10-01T05:30:32.448Z,81.57
2018-10-01T05:33:01.233Z,82.26
2018-10-01T05:35:29.923Z,83.01
2018-10-01T05:37:58.745Z,82.99
2018-10-01T05:40:27.331Z,83.21
2018-10-01T05:42:56.050Z,83.44
2018-10-01T05:45:24.735Z,83.49
2018-10-01T05:47:53.439Z,83.76
2018-10-01T05:50:22.140Z,83.71
2018-10-01T05:52:50.867Z,84.09
2018-10-01T05:55:19.545Z,84.26
2018-10-01T05:57:48.281Z,84.58
2018-10-01T06:00:16.963Z,84.04
2018-10-01T06:02:45.692Z,84.08
2018-10-01T06:05:14.392Z,84.62
2018-10-01T06:07:43.147Z,84.76
2018-10-01T06:10:11.867Z,84.88
2018-10-01T06:12:40.565Z,84.54
2018-10-01T06:15:09.278Z,85.15
2018-10-01T06:17:37.965Z,84.64
2018-10-01T06:20:06.968Z,85.15
2018-10-01T06:22:35.782Z,85.15
2018-10-01T06:25:05.033Z,85.53
2018-10-01T06:27:33.701Z,85.72
2018-10-01T06:30:02.450Z,85.74
2018-10-01T06:32:31.152Z,85.54
2018-10-01T06:34:59.991Z,85.48
2018-10-01T06:37:28.829Z,85.46
2018-10-01T06:39:57.764Z,85.96
2018-10-01T06:42:26.596Z,85.83
2018-10-01T06:44:55.336Z,85.84
2018-10-01T06:47:24.125Z,86.19
2018-10-01T06:49:52.873Z,86.04
2018-10-01T06:52:21.678Z,86.21
2018-10-01T06:54:50.628Z,86.25
2018-10-01T06:57:19.385Z,86.25
2018-10-01T06:59:48.314Z,86.33
2018-10-01T07:02:17.044Z,86.20
2018-10-01T07:04:45.841Z,86.92
2018-10-01T07:07:14.648Z,87.02
2018-10-01T07:09:43.328Z,86.72
2018-10-01T07:12:12.268Z,86.57
2018-10-01T07:14:40.982Z,86.45
2018-10-01T07:17:09.885Z,86.71
2018-10-01T07:19:38.663Z,86.73
2018-10-01T07:22:07.562Z,86.77
2018-10-01T07:24:36.408Z,86.73
2018-10-01T07:27:05.229Z,86.43
2018-10-01T07:29:34.083Z,86.58
2018-10-01T07:32:02.719Z,86.67
2018-10-01T07:34:31.398Z,86.82
2018-10-01T07:37:00.102Z,86.63
2018-10-01T07:39:28.808Z,86.65
2018-10-01T07:41:57.549Z,86.44
2018-10-01T07:44:26.256Z,86.08
2018-10-01T07:46:54.930Z,85.89
2018-10-01T07:49:23.697Z,85.51
2018-10-01T07:51:52.495Z,84.95
2018-10-01T07:54:21.163Z,84.54
2018-10-01T07:56:49.936Z,84.31
2018-10-01T07:59:18.617Z,84.35
2018-10-01T08:01:47.327Z,84.49
2018-10-01T08:04:16.038Z,84.06
2018-10-01T08:06:44.747Z,84.29
2018-10-01T08:09:13.435Z,83.84
2018-10-01T08:11:42.157Z,83.84
2018-10-01T08:14:10.959Z,83.63
2018-10-01T08:16:39.570Z,83.94
2018-10-01T08:19:08.252Z,83.56
2018-10-01T08:21:36.963Z,83.38
2018-10-01T08:24:05.664Z,82.44
2018-10-01T08:26:34.414Z,81.04
2018-10-01T08:29:03.133Z,80.96
2018-10-01T08:31:31.843Z,81.05
2018-10-01T08:34:00.568Z,80.02
2018-10-01T08:36:29.283Z,80.52
2018-10-01T08:38:57.991Z,79.86
2018-10-01T08:41:26.733Z,80.43
2018-10-01T08:43:55.479Z,80.14
2018-10-01T08:46:24.172Z,79.65
2018-10-01T08:49:00.720Z,78.03
2018-10-01T08:51:35.040Z,77.09
2018-10-01T08:54:12.707Z,77.77
2018-10-01T08:56:41.527Z,76.85
2018-10-01T08:59:10.492Z,76.89
2018-10-01T09:01:39.176Z,75.87
2018-10-01T09:04:07.895Z,75.72
2018-10-01T09:06:36.591Z,75.74
2018-10-01T09:09:07.743Z,74.99
2018-10-01T09:11:36.565Z,75.47
2018-10-01T09:14:05.310Z,75.37
2018-10-01T09:16:33.977Z,75.06
2018-10-01T09:19:02.716Z,75.11
2018-10-01T09:21:31.586Z,74.81
2018-10-01T09:24:00.436Z,74.72
2018-10-01T09:26:29.240Z,74.41
2018-10-01T09:28:57.932Z,74.55
2018-10-01T09:31:26.610Z,73.79
2018-10-01T09:33:55.304Z,73.30
2018-10-01T09:36:24.012Z,73.39
2018-10-01T09:38:52.877Z,73.89
2018-10-01T09:41:21.578Z,73.53
2018-10-01T09:43:50.286Z,72.17
2018-10-01T09:46:18.979Z,71.88
2018-10-01T09:48:47.674Z,71.17
2018-10-01T09:51:16.412Z,71.57
2018-10-01T09:53:45.142Z,71.87
2018-10-01T09:56:13.880Z,71.29
2018-10-01T09:58:42.504Z,71.62
2018-10-01T10:01:13.560Z,71.31
2018-10-01T10:03:42.255Z,70.60
2018-10-01T10:06:10.968Z,71.46
2018-10-01T10:08:40.071Z,72.21
2018-10-01T10:11:08.809Z,72.49
2018-10-01T10:13:37.512Z,72.41
2018-10-01T10:16:06.320Z,71.94
2018-10-01T10:18:35.029Z,70.91
2018-10-01T10:21:04.026Z,70.82
2018-10-01T10:23:32.771Z,71.15
2018-10-01T10:26:01.537Z,71.21
2018-10-01T10:28:30.253Z,71.40
2018-10-01T10:30:59.022Z,71.07
2018-10-01T10:33:27.719Z,71.07
2018-10-01T10:38:20.065Z,71.84
2018-10-01T10:40:48.749Z,71.24
2018-10-01T10:43:17.448Z,70.84
2018-10-01T10:45:46.130Z,70.81
2018-10-01T10:48:14.890Z,70.47
2018-10-01T10:50:43.587Z,70.09
2018-10-01T10:53:12.243Z,70.07
2018-10-01T10:55:40.921Z,69.83
2018-10-01T10:58:09.595Z,69.60
2018-10-01T11:00:38.304Z,69.24
2018-10-01T11:03:07.056Z,68.65
2018-10-01T11:05:35.757Z,68.46
2018-10-01T11:08:04.528Z,68.59
2018-10-01T11:10:33.171Z,68.75
2018-10-01T11:13:01.840Z,68.53
2018-10-01T11:15:30.668Z,67.63
2018-10-01T11:17:59.333Z,66.86
2018-10-01T11:20:28.153Z,66.72
2018-10-01T11:22:56.757Z,67.47
2018-10-01T11:25:25.478Z,67.74
2018-10-01T11:27:54.211Z,67.20
2018-10-01T11:30:22.881Z,67.32
2018-10-01T11:32:51.596Z,67.33
2018-10-01T11:35:20.428Z,66.92
2018-10-01T11:37:49.059Z,65.93
2018-10-01T11:40:17.745Z,65.36
2018-10-01T11:42:46.450Z,64.62
2018-10-01T11:45:15.226Z,64.18
2018-10-01T11:47:44.109Z,64.25
2018-10-01T11:50:12.899Z,62.91
2018-10-01T11:52:41.624Z,62.60
2018-10-01T11:55:10.374Z,63.26
2018-10-01T11:57:39.233Z,63.85
2018-10-01T12:00:08.774Z,65.14
2018-10-01T12:02:37.465Z,64.70
2018-10-01T12:05:06.944Z,63.95
2018-10-01T12:07:35.657Z,64.13
2018-10-01T12:10:04.512Z,64.24
2018-10-01T12:12:33.161Z,64.09
2018-10-01T12:15:01.958Z,64.00
2018-10-01T12:17:30.825Z,63.61
2018-10-01T12:19:59.625Z,64.11
2018-10-01T12:22:28.487Z,64.69
2018-10-01T12:24:57.212Z,64.52
2018-10-01T12:27:25.875Z,62.80
2018-10-01T12:29:54.568Z,62.12
2018-10-01T12:32:23.277Z,60.95
2018-10-01T12:34:51.999Z,61.03
2018-10-01T12:37:20.719Z,60.19
2018-10-01T12:39:49.496Z,60.18
2018-10-01T12:42:18.175Z,60.17
2018-10-01T12:44:46.868Z,59.79
2018-10-01T12:47:15.555Z,59.56
2018-10-01T12:49:44.348Z,59.38
2018-10-01T12:52:13.081Z,59.20
2018-10-01T12:54:41.760Z,58.69
2018-10-01T12:57:10.509Z,58.83
2018-10-01T12:59:39.198Z,58.19
2018-10-01T13:02:08.028Z,58.39
2018-10-01T13:04:36.704Z,58.39
2018-10-01T13:07:05.403Z,57.07
2018-10-01T13:09:34.127Z,56.24
2018-10-01T13:12:02.880Z,56.00
2018-10-01T13:14:31.595Z,55.56
2018-10-01T13:17:00.322Z,55.91
2018-10-01T13:19:29.036Z,55.53
2018-10-01T13:21:57.740Z,55.74
2018-10-01T13:24:26.454Z,55.47
2018-10-01T13:26:55.148Z,55.08
2018-10-01T13:29:23.936Z,54.48
2018-10-01T13:31:52.720Z,55.44
2018-10-01T13:34:21.394Z,56.42
2018-10-01T13:36:50.153Z,56.48
2018-10-01T13:39:18.875Z,56.13
2018-10-01T13:41:47.561Z,54.71
2018-10-01T13:44:16.367Z,54.32
2018-10-01T13:46:45.011Z,54.84
2018-10-01T13:49:13.699Z,54.77
2018-10-01T13:51:42.371Z,55.63
2018-10-01T13:54:11.394Z,55.50
2018-10-01T13:56:40.088Z,55.56
2018-10-01T13:59:08.759Z,54.76
2018-10-01T14:01:37.595Z,55.18
2018-10-01T14:04:06.197Z,56.19
2018-10-01T14:06:34.958Z,56.65
2018-10-01T14:09:04.940Z,56.45
2018-10-01T14:11:33.638Z,55.59
2018-10-01T14:14:02.335Z,54.72
2018-10-01T14:16:31.031Z,53.35
2018-10-01T14:18:59.801Z,52.88
2018-10-01T14:21:28.460Z,52.84
2018-10-01T14:23:57.171Z,52.68
2018-10-01T14:26:26.437Z,52.65
2018-10-01T14:28:55.171Z,53.25
2018-10-01T14:31:23.849Z,53.24
2018-10-01T14:33:52.541Z,53.13
2018-10-01T14:36:21.452Z,52.99
2018-10-01T14:38:50.291Z,52.13
2018-10-01T14:41:18.973Z,52.25
2018-10-01T14:43:47.710Z,52.00
2018-10-01T14:46:16.470Z,51.51
2018-10-01T14:48:45.326Z,51.80
2018-10-01T14:51:14.319Z,51.83
2018-10-01T14:53:43.072Z,52.21
2018-10-01T14:56:12.084Z,52.14
2018-10-01T14:58:40.832Z,52.35
2018-10-01T15:01:09.570Z,52.19
2018-10-01T15:03:38.742Z,51.68
2018-10-01T15:06:07.572Z,51.62
2018-10-01T15:08:36.512Z,50.98
2018-10-01T15:11:05.385Z,50.36
2018-10-01T15:13:34.132Z,49.73
2018-10-01T15:16:02.848Z,50.29
2018-10-01T15:18:31.780Z,50.40
2018-10-01T15:21:00.586Z,50.45
2018-10-01T15:23:29.529Z,50.81
2018-10-01T15:25:58.290Z,51.06
2018-10-01T15:28:27.098Z,50.41
2018-10-01T15:30:55.898Z,50.77
2018-10-01T15:33:24.728Z,50.05
2018-10-01T15:35:53.396Z,50.27
2018-10-01T15:38:22.260Z,50.19
2018-10-01T15:40:50.972Z,50.51
2018-10-01T15:43:19.824Z,50.59
2018-10-01T15:45:48.631Z,49.93
2018-10-01T15:48:17.439Z,49.62
2018-10-01T15:50:46.223Z,49.12
2018-10-01T15:53:15.091Z,48.88
2018-10-01T15:55:43.826Z,49.21
2018-10-01T15:58:12.498Z,49.17
2018-10-01T16:00:41.198Z,48.75
2018-10-01T16:03:09.987Z,48.33
2018-10-01T16:05:38.755Z,48.89
2018-10-01T16:08:07.611Z,50.11
2018-10-01T16:10:36.331Z,51.17
2018-10-01T16:13:05.069Z,51.40
2018-10-01T16:15:33.813Z,51.92
2018-10-01T16:18:02.582Z,52.55
2018-10-01T16:20:31.301Z,53.27
2018-10-01T16:23:00.005Z,54.18
2018-10-01T16:25:28.737Z,54.47
2018-10-01T16:27:57.423Z,55.33
2018-10-01T16:30:26.109Z,56.16
2018-10-01T16:32:54.808Z,56.73
2018-10-01T16:35:23.519Z,57.44
2018-10-01T16:37:52.269Z,57.61
2018-10-01T16:40:20.965Z,57.69
2018-10-01T16:42:49.736Z,58.13
2018-10-01T16:45:18.546Z,58.53
2018-10-01T16:47:47.315Z,58.88
2018-10-01T16:50:16.065Z,59.02
2018-10-01T16:52:44.795Z,59.63
2018-10-01T16:55:13.555Z,59.66
2018-10-01T16:57:42.298Z,59.91
2018-10-01T17:00:11.072Z,59.80
2018-10-01T17:02:39.793Z,60.61
2018-10-01T17:05:08.552Z,60.74
2018-10-01T17:07:37.289Z,61.32
2018-10-01T17:10:06.182Z,61.12
2018-10-01T17:12:34.940Z,60.84
2018-10-01T17:15:03.682Z,60.95
2018-10-01T17:17:32.406Z,61.18
2018-10-01T17:20:01.110Z,61.41
2018-10-01T17:22:29.811Z,61.39
2018-10-01T17:24:58.540Z,61.70
2018-10-01T17:27:27.236Z,61.87
2018-10-01T17:29:56.156Z,61.82
2018-10-01T17:32:25.009Z,62.13
2018-10-01T17:34:53.889Z,62.29
2018-10-01T17:37:22.780Z,63.03
2018-10-01T17:39:51.547Z,63.50
2018-10-01T17:42:20.501Z,63.65
2018-10-01T17:44:49.453Z,64.00
2018-10-01T17:47:18.348Z,64.16
2018-10-01T17:49:47.310Z,64.40
2018-10-01T17:52:16.152Z,64.96
2018-10-01T17:54:45.704Z,65.09
2018-10-01T17:57:14.412Z,65.45
2018-10-01T17:59:43.233Z,65.47
2018-10-01T18:02:11.892Z,65.82
2018-10-01T18:04:40.667Z,65.87
2018-10-01T18:07:09.540Z,65.55
2018-10-01T18:09:38.258Z,66.03
2018-10-01T18:12:07.021Z,66.14
2018-10-01T18:14:35.805Z,66.00
2018-10-01T18:17:04.580Z,66.69
2018-10-01T18:19:33.494Z,67.10
2018-10-01T18:22:02.200Z,67.17
2018-10-01T18:24:30.884Z,66.55
2018-10-01T18:26:59.577Z,66.63
2018-10-01T18:29:28.278Z,67.07
2018-10-01T18:31:57.029Z,67.28
2018-10-01T18:34:25.680Z,67.44
2018-10-01T18:36:54.396Z,67.56
2018-10-01T18:39:25.340Z,68.13
2018-10-01T18:41:54.093Z,68.47
2018-10-01T18:44:22.730Z,68.54
2018-10-01T18:46:51.589Z,68.55
2018-10-01T18:49:20.307Z,68.42
2018-10-01T18:51:49.131Z,67.98
2018-10-01T18:54:18.410Z,67.89
2018-10-01T18:56:47.323Z,68.05
2018-10-01T18:59:17.044Z,68.04
2018-10-01T19:01:45.955Z,68.50
2018-10-01T19:04:14.784Z,68.71
2018-10-01T19:06:43.962Z,69.38
2018-10-01T19:09:13.811Z,69.07
2018-10-01T19:11:43.797Z,69.38
2018-10-01T19:14:13.524Z,69.53
2018-10-01T19:16:42.937Z,69.82
2018-10-01T19:19:11.900Z,69.58
2018-10-01T19:21:40.645Z,70.14
2018-10-01T19:24:09.439Z,70.14
2018-10-01T19:26:38.456Z,70.70
2018-10-01T19:29:07.367Z,71.30
2018-10-01T19:31:36.375Z,70.77
2018-10-01T19:34:05.245Z,71.12
2018-10-01T19:36:35.305Z,71.05
2018-10-01T19:39:08.581Z,70.99
2018-10-01T19:41:38.316Z,71.40
2018-10-01T19:44:07.118Z,71.55
2018-10-01T19:46:35.934Z,71.75
2018-10-01T19:49:04.834Z,71.94
2018-10-01T19:51:33.630Z,71.64
2018-10-01T19:54:02.523Z,71.81
2018-10-01T19:56:31.251Z,71.85
2018-10-01T19:59:00.833Z,72.15
2018-10-01T20:01:29.663Z,72.50
2018-10-01T20:03:58.586Z,72.00
2018-10-01T20:06:27.338Z,72.34
2018-10-01T20:08:56.185Z,73.02
2018-10-01T20:11:25.064Z,72.80
2018-10-01T20:13:53.800Z,72.22
2018-10-01T20:16:22.641Z,72.52
2018-10-01T20:18:51.461Z,72.55
2018-10-01T20:21:20.203Z,72.63
2018-10-01T20:23:48.964Z,72.91
2018-10-01T20:26:17.881Z,72.79
2018-10-01T20:28:47.052Z,73.16
2018-10-01T20:31:15.666Z,73.84
2018-10-01T20:33:44.430Z,74.36
2018-10-01T20:36:13.223Z,74.70
2018-10-01T20:38:41.994Z,74.72
2018-10-01T20:41:10.992Z,75.13
2018-10-01T20:43:39.882Z,74.54
2018-10-01T20:46:08.867Z,73.96
2018-10-01T20:48:37.792Z,74.60
2018-10-01T20:51:06.552Z,75.17
2018-10-01T20:53:35.437Z,75.22
2018-10-01T20:56:04.275Z,75.26
2018-10-01T20:58:33.075Z,75.42
2018-10-01T21:01:01.965Z,75.36
2018-10-01T21:03:30.853Z,75.56
2018-10-01T21:05:59.649Z,76.28
2018-10-01T21:08:28.680Z,76.76
2018-10-01T21:10:57.449Z,76.91
2018-10-01T21:13:26.288Z,77.25
2018-10-01T21:15:55.077Z,77.90
2018-10-01T21:18:23.892Z,78.22
2018-10-01T21:20:52.704Z,78.49
2018-10-01T21:23:21.421Z,78.42
2018-10-01T21:25:50.164Z,78.60
2018-10-01T21:28:18.874Z,79.07
2018-10-01T21:30:47.532Z,79.72
2018-10-01T21:33:16.234Z,80.11
2018-10-01T21:35:44.934Z,80.18
2018-10-01T21:38:13.643Z,80.51
2018-10-01T21:40:42.400Z,80.12
2018-10-01T21:43:11.100Z,80.21
2018-10-01T21:45:39.822Z,80.96
2018-10-01T21:48:08.552Z,81.31
2018-10-01T21:50:37.279Z,81.61
2018-10-01T21:53:06.069Z,81.81
2018-10-01T21:55:34.748Z,81.82
2018-10-01T21:58:03.492Z,82.11
2018-10-01T22:00:37.462Z,82.07
2018-10-01T22:03:06.137Z,82.73
2018-10-01T22:05:34.868Z,83.45
2018-10-01T22:08:03.580Z,82.95
2018-10-01T22:10:32.300Z,83.91
2018-10-01T22:13:01.008Z,83.90
2018-10-01T22:15:33.850Z,83.84
2018-10-01T22:18:02.624Z,84.84
2018-10-01T22:20:31.412Z,85.04
2018-10-01T22:23:00.136Z,84.92
2018-10-01T22:25:28.828Z,85.12
2018-10-01T22:27:57.549Z,85.06
2018-10-01T22:30:26.284Z,86.56
2018-10-01T22:32:54.997Z,86.40
2018-10-01T22:35:23.712Z,87.34
2018-10-01T22:37:52.626Z,87.01
2018-10-01T22:40:21.327Z,87.44
2018-10-01T22:42:50.111Z,86.62
2018-10-01T22:45:18.805Z,86.40
2018-10-01T22:47:47.488Z,86.37
2018-10-01T22:50:16.205Z,86.92
2018-10-01T22:52:44.933Z,87.25
2018-10-01T22:55:13.697Z,87.03
2018-10-01T22:57:42.500Z,86.97
2018-10-01T23:00:11.264Z,87.51
2018-10-01T23:02:39.962Z,87.29
2018-10-01T23:05:08.671Z,87.58
2018-10-01T23:07:37.352Z,87.61
2018-10-01T23:10:06.043Z,87.49
2018-10-01T23:12:34.792Z,88.14
2018-10-01T23:15:03.514Z,87.86
2018-10-01T23:17:32.208Z,88.12
2018-10-01T23:20:00.916Z,88.15
2018-10-01T23:22:29.643Z,88.53
2018-10-01T23:24:58.351Z,88.67
2018-10-01T23:27:27.047Z,88.68
2018-10-01T23:29:55.722Z,88.99
2018-10-01T23:32:24.503Z,88.88
2018-10-01T23:34:53.101Z,89.11
2018-10-01T23:37:21.777Z,88.64
2018-10-01T23:39:50.584Z,89.25
2018-10-01T23:42:19.289Z,89.10
2018-10-01T23:44:47.958Z,89.29
2018-10-01T23:47:16.608Z,89.64
2018-10-01T23:49:45.277Z,89.95
2018-10-01T23:52:13.927Z,90.48
2018-10-01T23:54:42.598Z,90.71
2018-10-01T23:57:11.278Z,90.57
2018-10-01T23:59:39.939Z,90.74
